sensor_id;sensor_type;location;lat;lon;timestamp;temperature;humidity
8402;DHT22;4238;48.404;9.498;2024-03-02T05:00:23;4.70;99.90
8402;DHT22;4238;48.404;9.498;2024-03-02T05:02:50;4.60;99.90
8402;DHT22;4238;48.404;9.498;2024-03-02T05:05:17;4.70;99.90
8402;DHT22;4238;48.404;9.498;2024-03-02T05:07:44;4.70;99.90
8402;DHT22;4238;48.404;9.498;2024-03-02T05:10:11;4.70;99.90
8402;DHT22;4238;48.404;9.498;2024-03-02T05:12:38;4.70;99.90
8402;DHT22;4238;48.404;9.498;2024-03-02T05:15:24;4.80;99.90
8402;DHT22;4238;48.404;9.498;2024-03-02T05:17:50;4.80;99.90
8402;DHT22;4238;48.404;9.498;2024-03-02T05:20:18;4.70;99.90
8402;DHT22;4238;48.404;9.498;2024-03-02T05:22:45;4.60;99.90
8402;DHT22;4238;48.404;9.498;2024-03-02T05:25:12;4.50;99.90
8402;DHT22;4238;48.404;9.498;2024-03-02T05:27:39;4.60;99.90
8402;DHT22;4238;48.404;9.498;2024-03-02T05:30:08;4.50;99.90
8402;DHT22;4238;48.404;9.498;2024-03-02T05:32:36;4.40;99.90
8402;DHT22;4238;48.404;9.498;2024-03-02T05:35:03;4.30;99.90
8402;DHT22;4238;48.404;9.498;2024-03-02T05:37:30;4.30;99.90
8402;DHT22;4238;48.404;9.498;2024-03-02T05:39:57;4.30;99.90
8402;DHT22;4238;48.404;9.498;2024-03-02T05:42:24;4.30;99.90
8402;DHT22;4238;48.404;9.498;2024-03-02T05:44:52;4.20;99.90
8402;DHT22;4238;48.404;9.498;2024-03-02T05:47:19;4.30;99.90
8402;DHT22;4238;48.404;9.498;2024-03-02T05:49:47;4.20;99.90
8402;DHT22;4238;48.404;9.498;2024-03-02T05:52:14;4.30;99.90
8402;DHT22;4238;48.404;9.498;2024-03-02T05:54:41;4.30;99.90
8402;DHT22;4238;48.404;9.498;2024-03-02T05:57:08;4.30;99.90
8402;DHT22;4238;48.404;9.498;2024-03-02T05:59:57;4.20;99.90
8402;DHT22;4238;48.404;9.498;2024-03-02T06:02:24;4.10;99.90
8402;DHT22;4238;48.404;9.498;2024-03-02T06:04:54;4.30;99.90
8402;DHT22;4238;48.404;9.498;2024-03-02T06:07:20;4.20;99.90
8402;DHT22;4238;48.404;9.498;2024-03-02T06:09:47;4.30;99.90
8402;DHT22;4238;48.404;9.498;2024-03-02T06:12:16;4.40;99.90
8402;DHT22;4238;48.404;9.498;2024-03-02T06:14:43;4.30;99.90
8402;DHT22;4238;48.404;9.498;2024-03-02T06:17:10;4.30;99.90
8402;DHT22;4238;48.404;9.498;2024-03-02T06:19:37;4.10;99.90
8402;DHT22;4238;48.404;9.498;2024-03-02T06:22:05;4.10;99.90
8402;DHT22;4238;48.404;9.498;2024-03-02T06:24:35;4.00;99.90
8402;DHT22;4238;48.404;9.498;2024-03-02T06:27:02;4.10;99.90
8402;DHT22;4238;48.404;9.498;2024-03-02T06:29:29;4.20;99.90
8402;DHT22;4238;48.404;9.498;2024-03-02T06:31:58;4.10;99.90
8402;DHT22;4238;48.404;9.498;2024-03-02T06:34:25;4.10;99.90
8402;DHT22;4238;48.404;9.498;2024-03-02T06:36:52;4.30;99.90
8402;DHT22;4238;48.404;9.498;2024-03-02T06:39:20;4.30;99.90
8402;DHT22;4238;48.404;9.498;2024-03-02T06:41:47;4.30;99.90
8402;DHT22;4238;48.404;9.498;2024-03-02T06:44:14;4.30;99.90
8402;DHT22;4238;48.404;9.498;2024-03-02T06:46:41;4.20;99.90
8402;DHT22;4238;48.404;9.498;2024-03-02T06:49:08;4.00;99.90
8402;DHT22;4238;48.404;9.498;2024-03-02T06:51:36;4.10;99.90
8402;DHT22;4238;48.404;9.498;2024-03-02T06:54:03;4.20;99.90
8402;DHT22;4238;48.404;9.498;2024-03-02T06:56:31;4.10;99.90
8402;DHT22;4238;48.404;9.498;2024-03-02T06:58:59;4.20;99.90
8402;DHT22;4238;48.404;9.498;2024-03-02T07:01:26;4.30;99.90
8402;DHT22;4238;48.404;9.498;2024-03-02T07:03:53;4.20;99.90
8402;DHT22;4238;48.404;9.498;2024-03-02T07:06:20;4.20;99.90
8402;DHT22;4238;48.404;9.498;2024-03-02T07:08:47;4.20;99.90
8402;DHT22;4238;48.404;9.498;2024-03-02T07:11:14;4.30;99.90
8402;DHT22;4238;48.404;9.498;2024-03-02T07:13:42;4.20;99.90
8402;DHT22;4238;48.404;9.498;2024-03-02T07:16:11;4.20;99.90
8402;DHT22;4238;48.404;9.498;2024-03-02T07:18:58;4.40;99.90
8402;DHT22;4238;48.404;9.498;2024-03-02T07:21:27;4.40;99.90
8402;DHT22;4238;48.404;9.498;2024-03-02T07:23:54;4.40;99.90
8402;DHT22;4238;48.404;9.498;2024-03-02T07:26:21;4.40;99.90
8402;DHT22;4238;48.404;9.498;2024-03-02T07:28:51;4.40;99.90
8402;DHT22;4238;48.404;9.498;2024-03-02T07:31:18;4.40;99.90
8402;DHT22;4238;48.404;9.498;2024-03-02T07:33:45;4.60;99.90
8402;DHT22;4238;48.404;9.498;2024-03-02T07:36:13;4.60;99.90
8402;DHT22;4238;48.404;9.498;2024-03-02T07:38:40;4.70;99.90
8402;DHT22;4238;48.404;9.498;2024-03-02T07:41:07;4.80;99.90
8402;DHT22;4238;48.404;9.498;2024-03-02T07:43:34;4.90;99.90
8402;DHT22;4238;48.404;9.498;2024-03-02T07:46:03;5.00;99.90
8402;DHT22;4238;48.404;9.498;2024-03-02T07:48:30;5.10;99.90
8402;DHT22;4238;48.404;9.498;2024-03-02T07:50:57;5.10;99.90
8402;DHT22;4238;48.404;9.498;2024-03-02T07:53:24;5.20;99.90
8402;DHT22;4238;48.404;9.498;2024-03-02T07:55:51;5.30;99.90
8402;DHT22;4238;48.404;9.498;2024-03-02T07:58:18;5.30;99.90
8402;DHT22;4238;48.404;9.498;2024-03-02T08:00:46;5.50;99.90
8402;DHT22;4238;48.404;9.498;2024-03-02T08:03:15;5.30;99.90
8402;DHT22;4238;48.404;9.498;2024-03-02T08:05:42;5.50;99.90
8402;DHT22;4238;48.404;9.498;2024-03-02T08:08:09;5.50;99.90
8402;DHT22;4238;48.404;9.498;2024-03-02T08:10:37;5.60;99.90
8402;DHT22;4238;48.404;9.498;2024-03-02T08:13:04;5.90;99.90
8402;DHT22;4238;48.404;9.498;2024-03-02T08:15:31;6.10;99.90
8402;DHT22;4238;48.404;9.498;2024-03-02T08:17:58;6.10;96.80
8402;DHT22;4238;48.404;9.498;2024-03-02T08:20:28;6.20;90.00
8402;DHT22;4238;48.404;9.498;2024-03-02T08:22:55;5.90;91.80
8402;DHT22;4238;48.404;9.498;2024-03-02T08:25:22;5.80;99.90
8402;DHT22;4238;48.404;9.498;2024-03-02T08:27:49;5.90;99.90
8402;DHT22;4238;48.404;9.498;2024-03-02T08:30:16;5.90;98.60
8402;DHT22;4238;48.404;9.498;2024-03-02T08:32:43;6.00;95.80
8402;DHT22;4238;48.404;9.498;2024-03-02T08:35:10;6.10;99.90
8402;DHT22;4238;48.404;9.498;2024-03-02T08:37:39;5.80;98.30
8402;DHT22;4238;48.404;9.498;2024-03-02T08:40:08;5.90;96.50
8402;DHT22;4238;48.404;9.498;2024-03-02T08:42:36;5.90;99.90
8402;DHT22;4238;48.404;9.498;2024-03-02T08:45:03;6.00;99.90
8402;DHT22;4238;48.404;9.498;2024-03-02T08:47:30;6.10;99.90
8402;DHT22;4238;48.404;9.498;2024-03-02T08:49:57;6.20;99.60
8402;DHT22;4238;48.404;9.498;2024-03-02T08:52:24;6.30;94.20
8402;DHT22;4238;48.404;9.498;2024-03-02T08:54:52;6.50;82.40
8402;DHT22;4238;48.404;9.498;2024-03-02T08:57:19;6.70;83.00
8402;DHT22;4238;48.404;9.498;2024-03-02T08:59:46;6.90;77.40
8402;DHT22;4238;48.404;9.498;2024-03-02T09:02:13;7.00;78.80
8402;DHT22;4238;48.404;9.498;2024-03-02T09:04:40;7.40;54.30
8402;DHT22;4238;48.404;9.498;2024-03-02T09:07:07;7.60;45.60
8402;DHT22;4238;48.404;9.498;2024-03-02T09:09:34;7.90;39.70
8402;DHT22;4238;48.404;9.498;2024-03-02T09:12:03;8.10;10.20
8402;DHT22;4238;48.404;9.498;2024-03-02T09:14:30;8.20;8.90
8402;DHT22;4238;48.404;9.498;2024-03-02T09:16:57;8.30;1.00
8402;DHT22;4238;48.404;9.498;2024-03-02T09:19:24;7.80;8.30
8402;DHT22;4238;48.404;9.498;2024-03-02T09:21:50;7.90;13.50
8402;DHT22;4238;48.404;9.498;2024-03-02T09:24:17;8.20;14.70
8402;DHT22;4238;48.404;9.498;2024-03-02T09:26:44;8.40;3.30
8402;DHT22;4238;48.404;9.498;2024-03-02T09:29:12;8.60;4.80
8402;DHT22;4238;48.404;9.498;2024-03-02T09:31:40;8.00;17.40
8402;DHT22;4238;48.404;9.498;2024-03-02T09:34:07;8.50;24.70
8402;DHT22;4238;48.404;9.498;2024-03-02T09:36:34;8.20;20.30
8402;DHT22;4238;48.404;9.498;2024-03-02T09:39:01;8.90;4.30
8402;DHT22;4238;48.404;9.498;2024-03-02T09:41:29;9.60;1.00
8402;DHT22;4238;48.404;9.498;2024-03-02T09:43:56;10.10;1.00
8402;DHT22;4238;48.404;9.498;2024-03-02T09:46:25;10.50;1.00
8402;DHT22;4238;48.404;9.498;2024-03-02T09:48:52;10.30;99.90
8402;DHT22;4238;48.404;9.498;2024-03-02T09:51:19;10.40;1.00
8402;DHT22;4238;48.404;9.498;2024-03-02T09:53:47;10.60;65.90
8402;DHT22;4238;48.404;9.498;2024-03-02T09:56:14;11.10;1.00
8402;DHT22;4238;48.404;9.498;2024-03-02T09:58:42;11.70;99.90
8402;DHT22;4238;48.404;9.498;2024-03-02T10:01:09;11.90;1.00
8402;DHT22;4238;48.404;9.498;2024-03-02T10:03:38;12.20;1.00
8402;DHT22;4238;48.404;9.498;2024-03-02T10:06:21;12.40;99.90
8402;DHT22;4238;48.404;9.498;2024-03-02T10:08:48;12.40;1.00
8402;DHT22;4238;48.404;9.498;2024-03-02T10:11:28;12.50;1.00
8402;DHT22;4238;48.404;9.498;2024-03-02T10:14:06;12.20;1.00
8402;DHT22;4238;48.404;9.498;2024-03-02T10:16:34;12.60;99.90
8402;DHT22;4238;48.404;9.498;2024-03-02T10:19:18;12.80;99.90
8402;DHT22;4238;48.404;9.498;2024-03-02T10:21:46;12.90;99.90
8402;DHT22;4238;48.404;9.498;2024-03-02T10:24:13;12.70;1.00
8402;DHT22;4238;48.404;9.498;2024-03-02T10:26:40;12.80;1.00
8402;DHT22;4238;48.404;9.498;2024-03-02T10:29:08;12.90;99.90
8402;DHT22;4238;48.404;9.498;2024-03-02T10:31:37;13.10;1.00
8402;DHT22;4238;48.404;9.498;2024-03-02T10:34:05;12.70;1.00
8402;DHT22;4238;48.404;9.498;2024-03-02T10:36:33;12.60;99.90
8402;DHT22;4238;48.404;9.498;2024-03-02T10:39:02;13.00;99.90
8402;DHT22;4238;48.404;9.498;2024-03-02T10:41:32;13.00;1.00
8402;DHT22;4238;48.404;9.498;2024-03-02T10:44:02;12.90;1.00
8402;DHT22;4238;48.404;9.498;2024-03-02T10:46:30;13.00;99.90
8402;DHT22;4238;48.404;9.498;2024-03-02T10:48:58;13.30;99.90
8402;DHT22;4238;48.404;9.498;2024-03-02T10:51:26;13.30;99.90
8402;DHT22;4238;48.404;9.498;2024-03-02T10:53:55;13.60;1.00
8402;DHT22;4238;48.404;9.498;2024-03-02T10:56:28;12.30;99.90
8402;DHT22;4238;48.404;9.498;2024-03-02T10:59:01;12.80;99.90
8402;DHT22;4238;48.404;9.498;2024-03-02T11:01:29;13.10;99.90
8402;DHT22;4238;48.404;9.498;2024-03-02T11:03:58;13.50;99.90
8402;DHT22;4238;48.404;9.498;2024-03-02T11:06:28;13.90;38.60
8402;DHT22;4238;48.404;9.498;2024-03-02T11:09:00;14.30;1.00
8402;DHT22;4238;48.404;9.498;2024-03-02T11:11:37;14.50;99.90
8402;DHT22;4238;48.404;9.498;2024-03-02T11:14:10;14.40;16.20
8402;DHT22;4238;48.404;9.498;2024-03-02T11:16:38;14.30;1.00
8402;DHT22;4238;48.404;9.498;2024-03-02T11:19:09;14.60;99.90
8402;DHT22;4238;48.404;9.498;2024-03-02T11:21:37;14.80;1.00
8402;DHT22;4238;48.404;9.498;2024-03-02T11:24:33;14.90;1.00
8402;DHT22;4238;48.404;9.498;2024-03-02T11:27:02;14.60;1.00
8402;DHT22;4238;48.404;9.498;2024-03-02T11:29:45;15.10;1.00
8402;DHT22;4238;48.404;9.498;2024-03-02T11:32:15;15.10;1.00
8402;DHT22;4238;48.404;9.498;2024-03-02T11:34:43;15.40;99.90
8402;DHT22;4238;48.404;9.498;2024-03-02T11:37:12;15.40;99.90
8402;DHT22;4238;48.404;9.498;2024-03-02T11:39:41;15.30;99.90
8402;DHT22;4238;48.404;9.498;2024-03-02T11:42:08;14.30;99.90
8402;DHT22;4238;48.404;9.498;2024-03-02T11:44:36;14.50;99.90
8402;DHT22;4238;48.404;9.498;2024-03-02T11:47:06;15.10;99.90
8402;DHT22;4238;48.404;9.498;2024-03-02T11:49:38;15.30;99.90
8402;DHT22;4238;48.404;9.498;2024-03-02T11:52:06;15.10;99.90
8402;DHT22;4238;48.404;9.498;2024-03-02T11:54:33;15.20;99.90
8402;DHT22;4238;48.404;9.498;2024-03-02T11:57:03;15.30;99.90
8402;DHT22;4238;48.404;9.498;2024-03-02T11:59:30;15.30;99.90
8402;DHT22;4238;48.404;9.498;2024-03-02T12:01:58;15.60;99.90
8402;DHT22;4238;48.404;9.498;2024-03-02T12:04:25;15.80;99.90
8402;DHT22;4238;48.404;9.498;2024-03-02T12:06:54;15.50;99.90
8402;DHT22;4238;48.404;9.498;2024-03-02T12:09:22;14.30;99.90
8402;DHT22;4238;48.404;9.498;2024-03-02T12:12:03;13.20;99.90
8402;DHT22;4238;48.404;9.498;2024-03-02T12:14:30;13.60;99.90
8402;DHT22;4238;48.404;9.498;2024-03-02T12:16:57;14.30;99.90
8402;DHT22;4238;48.404;9.498;2024-03-02T12:19:25;13.90;99.90
8402;DHT22;4238;48.404;9.498;2024-03-02T12:21:52;14.90;99.90
8402;DHT22;4238;48.404;9.498;2024-03-02T12:24:20;15.50;99.90
8402;DHT22;4238;48.404;9.498;2024-03-02T12:26:48;15.20;99.90
8402;DHT22;4238;48.404;9.498;2024-03-02T12:29:18;15.40;99.90
8402;DHT22;4238;48.404;9.498;2024-03-02T12:31:48;15.90;81.00
8402;DHT22;4238;48.404;9.498;2024-03-02T12:34:16;15.80;63.10
8402;DHT22;4238;48.404;9.498;2024-03-02T12:36:44;15.40;27.30
8402;DHT22;4238;48.404;9.498;2024-03-02T12:39:13;15.40;20.70
8402;DHT22;4238;48.404;9.498;2024-03-02T12:41:41;15.40;31.30
8402;DHT22;4238;48.404;9.498;2024-03-02T12:44:08;15.50;64.80
8402;DHT22;4238;48.404;9.498;2024-03-02T12:46:37;14.80;65.50
8402;DHT22;4238;48.404;9.498;2024-03-02T12:49:08;15.50;62.90
8402;DHT22;4238;48.404;9.498;2024-03-02T12:51:36;15.70;21.00
8402;DHT22;4238;48.404;9.498;2024-03-02T12:54:03;15.40;1.00
8402;DHT22;4238;48.404;9.498;2024-03-02T12:56:31;15.20;1.00
8402;DHT22;4238;48.404;9.498;2024-03-02T12:58:59;15.50;1.00
8402;DHT22;4238;48.404;9.498;2024-03-02T13:01:26;15.50;1.00
8402;DHT22;4238;48.404;9.498;2024-03-02T13:03:54;15.50;1.00
8402;DHT22;4238;48.404;9.498;2024-03-02T13:06:23;15.40;1.00
8402;DHT22;4238;48.404;9.498;2024-03-02T13:08:53;15.60;1.00
8402;DHT22;4238;48.404;9.498;2024-03-02T13:11:21;15.50;1.00
8402;DHT22;4238;48.404;9.498;2024-03-02T13:13:48;15.50;1.00
8402;DHT22;4238;48.404;9.498;2024-03-02T13:16:15;15.50;1.00
8402;DHT22;4238;48.404;9.498;2024-03-02T13:18:44;15.90;1.00
8402;DHT22;4238;48.404;9.498;2024-03-02T13:21:13;15.90;1.00
8402;DHT22;4238;48.404;9.498;2024-03-02T13:23:40;15.80;1.00
8402;DHT22;4238;48.404;9.498;2024-03-02T13:26:07;14.90;1.00
8402;DHT22;4238;48.404;9.498;2024-03-02T13:28:36;15.50;1.00
8402;DHT22;4238;48.404;9.498;2024-03-02T13:31:03;15.50;1.00
8402;DHT22;4238;48.404;9.498;2024-03-02T13:33:30;15.30;1.00
8402;DHT22;4238;48.404;9.498;2024-03-02T13:35:58;15.60;1.00
8402;DHT22;4238;48.404;9.498;2024-03-02T13:38:28;15.60;1.00
8402;DHT22;4238;48.404;9.498;2024-03-02T13:40:55;15.60;1.00
8402;DHT22;4238;48.404;9.498;2024-03-02T13:43:22;15.90;1.00
8402;DHT22;4238;48.404;9.498;2024-03-02T13:45:49;15.80;1.00
8402;DHT22;4238;48.404;9.498;2024-03-02T13:48:17;16.00;1.00
8402;DHT22;4238;48.404;9.498;2024-03-02T13:50:44;15.80;1.00
8402;DHT22;4238;48.404;9.498;2024-03-02T13:53:12;15.90;1.00
8402;DHT22;4238;48.404;9.498;2024-03-02T13:55:40;15.50;1.00
8402;DHT22;4238;48.404;9.498;2024-03-02T13:58:07;15.50;1.00
8402;DHT22;4238;48.404;9.498;2024-03-02T14:00:34;15.50;1.00
8402;DHT22;4238;48.404;9.498;2024-03-02T14:03:02;15.40;1.00
8402;DHT22;4238;48.404;9.498;2024-03-02T14:05:30;15.30;1.00
8402;DHT22;4238;48.404;9.498;2024-03-02T14:07:57;15.10;1.00
8402;DHT22;4238;48.404;9.498;2024-03-02T14:10:24;15.10;1.00
8402;DHT22;4238;48.404;9.498;2024-03-02T14:12:52;15.30;1.00
8402;DHT22;4238;48.404;9.498;2024-03-02T14:15:20;15.40;1.00
8402;DHT22;4238;48.404;9.498;2024-03-02T14:17:47;15.10;1.00
8402;DHT22;4238;48.404;9.498;2024-03-02T14:20:14;15.10;1.00
8402;DHT22;4238;48.404;9.498;2024-03-02T14:22:46;15.10;1.00
8402;DHT22;4238;48.404;9.498;2024-03-02T14:25:13;15.00;1.00
8402;DHT22;4238;48.404;9.498;2024-03-02T14:27:40;14.90;1.00
8402;DHT22;4238;48.404;9.498;2024-03-02T14:30:09;14.60;1.00
8402;DHT22;4238;48.404;9.498;2024-03-02T14:32:36;14.40;1.00
8402;DHT22;4238;48.404;9.498;2024-03-02T14:35:04;14.50;1.00
8402;DHT22;4238;48.404;9.498;2024-03-02T14:37:31;14.30;1.00
8402;DHT22;4238;48.404;9.498;2024-03-02T14:39:58;14.30;1.00
8402;DHT22;4238;48.404;9.498;2024-03-02T14:42:24;14.00;1.00
8402;DHT22;4238;48.404;9.498;2024-03-02T14:44:54;13.90;1.00
8402;DHT22;4238;48.404;9.498;2024-03-02T14:47:22;13.90;1.00
8402;DHT22;4238;48.404;9.498;2024-03-02T14:49:50;13.90;1.00
8402;DHT22;4238;48.404;9.498;2024-03-02T14:52:17;13.60;1.00
8402;DHT22;4238;48.404;9.498;2024-03-02T14:54:44;13.60;1.00
8402;DHT22;4238;48.404;9.498;2024-03-02T14:57:12;13.60;1.00
8402;DHT22;4238;48.404;9.498;2024-03-02T14:59:39;13.60;1.00
8402;DHT22;4238;48.404;9.498;2024-03-02T15:02:07;13.70;1.00
8402;DHT22;4238;48.404;9.498;2024-03-02T15:04:35;13.70;1.00
8402;DHT22;4238;48.404;9.498;2024-03-02T15:07:02;13.60;18.00
8402;DHT22;4238;48.404;9.498;2024-03-02T15:09:29;13.50;99.90
8402;DHT22;4238;48.404;9.498;2024-03-02T15:11:56;13.50;99.90
8402;DHT22;4238;48.404;9.498;2024-03-02T15:14:22;13.40;99.90
8402;DHT22;4238;48.404;9.498;2024-03-02T15:16:49;13.20;1.00
8402;DHT22;4238;48.404;9.498;2024-03-02T15:19:16;12.90;34.60
8402;DHT22;4238;48.404;9.498;2024-03-02T15:21:44;12.70;1.00
8402;DHT22;4238;48.404;9.498;2024-03-02T15:24:11;12.50;1.00
8402;DHT22;4238;48.404;9.498;2024-03-02T15:26:38;12.50;1.00
8402;DHT22;4238;48.404;9.498;2024-03-02T15:29:05;12.50;1.00
8402;DHT22;4238;48.404;9.498;2024-03-02T15:31:32;12.50;99.90
8402;DHT22;4238;48.404;9.498;2024-03-02T15:33:59;12.40;1.00
8402;DHT22;4238;48.404;9.498;2024-03-02T15:36:26;12.40;99.90
8402;DHT22;4238;48.404;9.498;2024-03-02T15:38:54;12.30;1.00
8402;DHT22;4238;48.404;9.498;2024-03-02T15:41:22;12.00;98.30
8402;DHT22;4238;48.404;9.498;2024-03-02T15:43:49;12.00;99.90
8402;DHT22;4238;48.404;9.498;2024-03-02T15:46:16;11.70;1.00
8402;DHT22;4238;48.404;9.498;2024-03-02T15:48:42;11.60;1.00
8402;DHT22;4238;48.404;9.498;2024-03-02T15:51:09;11.50;99.90
8402;DHT22;4238;48.404;9.498;2024-03-02T15:53:37;11.50;1.00
8402;DHT22;4238;48.404;9.498;2024-03-02T15:56:05;11.40;1.00
8402;DHT22;4238;48.404;9.498;2024-03-02T15:58:32;11.40;1.00
8402;DHT22;4238;48.404;9.498;2024-03-02T16:01:01;11.40;1.00
8402;DHT22;4238;48.404;9.498;2024-03-02T16:03:29;11.30;1.00
8402;DHT22;4238;48.404;9.498;2024-03-02T16:05:56;11.30;1.00
8402;DHT22;4238;48.404;9.498;2024-03-02T16:08:23;11.30;1.00
8402;DHT22;4238;48.404;9.498;2024-03-02T16:10:50;11.10;1.00
8402;DHT22;4238;48.404;9.498;2024-03-02T16:13:20;11.20;1.00
8402;DHT22;4238;48.404;9.498;2024-03-02T16:15:47;11.00;1.00
8402;DHT22;4238;48.404;9.498;2024-03-02T16:18:14;10.90;1.00
8402;DHT22;4238;48.404;9.498;2024-03-02T16:20:41;10.80;1.00
8402;DHT22;4238;48.404;9.498;2024-03-02T16:23:08;10.70;1.00
8402;DHT22;4238;48.404;9.498;2024-03-02T16:25:35;10.80;1.00
8402;DHT22;4238;48.404;9.498;2024-03-02T16:28:02;10.70;1.00
8402;DHT22;4238;48.404;9.498;2024-03-02T16:30:31;10.60;1.00
8402;DHT22;4238;48.404;9.498;2024-03-02T16:32:57;10.40;1.00
8402;DHT22;4238;48.404;9.498;2024-03-02T16:35:25;10.30;1.00
8402;DHT22;4238;48.404;9.498;2024-03-02T16:37:51;10.30;1.00
8402;DHT22;4238;48.404;9.498;2024-03-02T16:40:18;10.20;1.00
8402;DHT22;4238;48.404;9.498;2024-03-02T16:42:45;10.20;1.00
8402;DHT22;4238;48.404;9.498;2024-03-02T16:45:12;10.10;1.00
8402;DHT22;4238;48.404;9.498;2024-03-02T16:47:40;10.10;1.00
8402;DHT22;4238;48.404;9.498;2024-03-02T16:50:07;10.10;2.10
8402;DHT22;4238;48.404;9.498;2024-03-02T16:52:37;10.00;7.20
8402;DHT22;4238;48.404;9.498;2024-03-02T16:55:04;9.90;13.10
8402;DHT22;4238;48.404;9.498;2024-03-02T16:57:32;9.80;16.40
8402;DHT22;4238;48.404;9.498;2024-03-02T16:59:59;9.80;20.20
8402;DHT22;4238;48.404;9.498;2024-03-02T17:02:25;9.80;20.20
8402;DHT22;4238;48.404;9.498;2024-03-02T17:04:53;9.60;25.90
8402;DHT22;4238;48.404;9.498;2024-03-02T17:07:20;9.60;26.40
8402;DHT22;4238;48.404;9.498;2024-03-02T17:09:50;9.50;29.10
8402;DHT22;4238;48.404;9.498;2024-03-02T17:12:18;9.40;38.80
8402;DHT22;4238;48.404;9.498;2024-03-02T17:14:45;9.30;44.80
8402;DHT22;4238;48.404;9.498;2024-03-02T17:17:12;9.40;44.20
8402;DHT22;4238;48.404;9.498;2024-03-02T17:19:39;9.40;42.60
8402;DHT22;4238;48.404;9.498;2024-03-02T17:22:08;9.40;47.40
8402;DHT22;4238;48.404;9.498;2024-03-02T17:24:35;9.20;52.10
8402;DHT22;4238;48.404;9.498;2024-03-02T17:27:01;9.20;56.90
8402;DHT22;4238;48.404;9.498;2024-03-02T17:29:28;9.20;58.70
8402;DHT22;4238;48.404;9.498;2024-03-02T17:31:56;9.20;59.80
8402;DHT22;4238;48.404;9.498;2024-03-02T17:34:23;9.10;62.10
8402;DHT22;4238;48.404;9.498;2024-03-02T17:36:50;9.10;65.40
8402;DHT22;4238;48.404;9.498;2024-03-02T17:39:18;9.00;70.00
8402;DHT22;4238;48.404;9.498;2024-03-02T17:41:45;9.00;71.60
8402;DHT22;4238;48.404;9.498;2024-03-02T17:44:12;9.00;72.90
8402;DHT22;4238;48.404;9.498;2024-03-02T17:46:39;8.90;79.80
8402;DHT22;4238;48.404;9.498;2024-03-02T17:49:05;8.90;81.50
8402;DHT22;4238;48.404;9.498;2024-03-02T17:51:32;8.80;86.30
8402;DHT22;4238;48.404;9.498;2024-03-02T17:54:00;8.70;90.00
8402;DHT22;4238;48.404;9.498;2024-03-02T17:56:28;8.70;90.20
8402;DHT22;4238;48.404;9.498;2024-03-02T17:58:55;8.60;91.40
8402;DHT22;4238;48.404;9.498;2024-03-02T18:01:23;8.60;93.40
8402;DHT22;4238;48.404;9.498;2024-03-02T18:03:49;8.60;94.30
8402;DHT22;4238;48.404;9.498;2024-03-02T18:06:16;8.50;96.10
8402;DHT22;4238;48.404;9.498;2024-03-02T18:08:43;8.50;96.50
8402;DHT22;4238;48.404;9.498;2024-03-02T18:11:10;8.40;98.60
8402;DHT22;4238;48.404;9.498;2024-03-02T18:13:38;8.40;99.90
8402;DHT22;4238;48.404;9.498;2024-03-02T18:16:05;8.40;99.90
8402;DHT22;4238;48.404;9.498;2024-03-02T18:18:32;8.30;99.90
8402;DHT22;4238;48.404;9.498;2024-03-02T18:20:59;8.30;99.90
8402;DHT22;4238;48.404;9.498;2024-03-02T18:23:28;8.30;99.90
8402;DHT22;4238;48.404;9.498;2024-03-02T18:25:54;8.30;99.90
8402;DHT22;4238;48.404;9.498;2024-03-02T18:28:22;8.30;99.90
8402;DHT22;4238;48.404;9.498;2024-03-02T18:30:50;8.20;99.90
8402;DHT22;4238;48.404;9.498;2024-03-02T18:33:17;8.20;99.90
8402;DHT22;4238;48.404;9.498;2024-03-02T18:35:44;8.20;99.90
8402;DHT22;4238;48.404;9.498;2024-03-02T18:38:11;8.10;99.90
8402;DHT22;4238;48.404;9.498;2024-03-02T18:40:38;8.00;99.90
8402;DHT22;4238;48.404;9.498;2024-03-02T18:43:04;8.10;99.90
8402;DHT22;4238;48.404;9.498;2024-03-02T18:45:31;8.00;99.90
8402;DHT22;4238;48.404;9.498;2024-03-02T18:47:59;8.00;99.90
8402;DHT22;4238;48.404;9.498;2024-03-02T18:50:27;8.00;99.90
8402;DHT22;4238;48.404;9.498;2024-03-02T18:52:54;8.00;99.90
8402;DHT22;4238;48.404;9.498;2024-03-02T18:55:20;7.90;99.90
8402;DHT22;4238;48.404;9.498;2024-03-02T18:57:47;7.90;99.90
8402;DHT22;4238;48.404;9.498;2024-03-02T19:00:15;8.00;99.90
8402;DHT22;4238;48.404;9.498;2024-03-02T19:02:42;7.90;99.90
8402;DHT22;4238;48.404;9.498;2024-03-02T19:05:10;7.80;99.90
8402;DHT22;4238;48.404;9.498;2024-03-02T19:07:37;7.80;99.90
8402;DHT22;4238;48.404;9.498;2024-03-02T19:10:04;7.80;99.90
8402;DHT22;4238;48.404;9.498;2024-03-02T19:12:34;7.80;99.90
8402;DHT22;4238;48.404;9.498;2024-03-02T19:15:00;7.80;99.90
8402;DHT22;4238;48.404;9.498;2024-03-02T19:17:27;7.70;99.90
8402;DHT22;4238;48.404;9.498;2024-03-02T19:19:54;7.70;99.90
8402;DHT22;4238;48.404;9.498;2024-03-02T19:22:22;7.70;99.90
8402;DHT22;4238;48.404;9.498;2024-03-02T19:24:49;7.60;99.90
8402;DHT22;4238;48.404;9.498;2024-03-02T19:27:16;7.70;99.90
8402;DHT22;4238;48.404;9.498;2024-03-02T19:29:43;7.60;99.90
8402;DHT22;4238;48.404;9.498;2024-03-02T19:32:10;7.60;99.90
8402;DHT22;4238;48.404;9.498;2024-03-02T19:34:37;7.60;99.90
8402;DHT22;4238;48.404;9.498;2024-03-02T19:37:04;7.60;99.90
8402;DHT22;4238;48.404;9.498;2024-03-02T19:39:32;7.60;99.90
8402;DHT22;4238;48.404;9.498;2024-03-02T19:42:02;7.60;99.90
8402;DHT22;4238;48.404;9.498;2024-03-02T19:44:28;7.50;99.90
8402;DHT22;4238;48.404;9.498;2024-03-02T19:46:58;7.50;99.90
8402;DHT22;4238;48.404;9.498;2024-03-02T19:49:25;7.50;99.90
8402;DHT22;4238;48.404;9.498;2024-03-02T19:51:51;7.50;99.90
8402;DHT22;4238;48.404;9.498;2024-03-02T19:54:18;7.40;99.90
8402;DHT22;4238;48.404;9.498;2024-03-02T19:56:47;7.40;99.90
8402;DHT22;4238;48.404;9.498;2024-03-02T19:59:14;7.40;99.90
8402;DHT22;4238;48.404;9.498;2024-03-02T20:01:40;7.40;99.90
8402;DHT22;4238;48.404;9.498;2024-03-02T20:04:07;7.30;99.90
8402;DHT22;4238;48.404;9.498;2024-03-02T20:06:35;7.30;99.90
8402;DHT22;4238;48.404;9.498;2024-03-02T20:09:02;7.00;99.90
8402;DHT22;4238;48.404;9.498;2024-03-02T20:11:31;7.00;99.90
8402;DHT22;4238;48.404;9.498;2024-03-02T20:14:00;6.90;99.90
8402;DHT22;4238;48.404;9.498;2024-03-02T20:16:27;6.90;99.90
8402;DHT22;4238;48.404;9.498;2024-03-02T20:18:53;7.00;99.90
8402;DHT22;4238;48.404;9.498;2024-03-02T20:21:20;7.00;99.90
8402;DHT22;4238;48.404;9.498;2024-03-02T20:23:47;6.90;99.90
8402;DHT22;4238;48.404;9.498;2024-03-02T20:26:14;7.00;99.90
8402;DHT22;4238;48.404;9.498;2024-03-02T20:28:43;6.90;99.90
8402;DHT22;4238;48.404;9.498;2024-03-02T20:31:11;6.90;99.90
8402;DHT22;4238;48.404;9.498;2024-03-02T20:33:39;6.80;99.90
8402;DHT22;4238;48.404;9.498;2024-03-02T20:36:11;6.80;99.90
8402;DHT22;4238;48.404;9.498;2024-03-02T20:38:38;6.80;99.90
8402;DHT22;4238;48.404;9.498;2024-03-02T20:41:05;6.70;99.90
8402;DHT22;4238;48.404;9.498;2024-03-02T20:43:32;6.70;99.90
8402;DHT22;4238;48.404;9.498;2024-03-02T20:46:00;6.70;99.90
8402;DHT22;4238;48.404;9.498;2024-03-02T20:48:33;6.70;99.90
8402;DHT22;4238;48.404;9.498;2024-03-02T20:51:02;6.70;99.90
8402;DHT22;4238;48.404;9.498;2024-03-02T20:53:28;6.60;99.90
8402;DHT22;4238;48.404;9.498;2024-03-02T20:55:55;6.60;99.90
8402;DHT22;4238;48.404;9.498;2024-03-02T20:58:22;6.60;99.90
8402;DHT22;4238;48.404;9.498;2024-03-02T21:00:49;6.60;99.90
8402;DHT22;4238;48.404;9.498;2024-03-02T21:03:16;6.50;99.90
8402;DHT22;4238;48.404;9.498;2024-03-02T21:05:44;6.60;99.90
8402;DHT22;4238;48.404;9.498;2024-03-02T21:08:11;6.50;99.90
8402;DHT22;4238;48.404;9.498;2024-03-02T21:10:38;6.60;99.90
8402;DHT22;4238;48.404;9.498;2024-03-02T21:13:04;6.60;99.90
8402;DHT22;4238;48.404;9.498;2024-03-02T21:15:31;6.60;99.90
8402;DHT22;4238;48.404;9.498;2024-03-02T21:17:58;6.60;99.90